createdAt,value
2023-04-04T00:02:04.001Z,0.65
2023-04-04T00:04:30.526Z,0.68
2023-04-04T00:06:57.021Z,0.74
2023-04-04T00:09:24.751Z,0.84
2023-04-04T00:11:51.407Z,0.83
2023-04-04T00:14:17.974Z,0.80
2023-04-04T00:16:44.503Z,0.79
2023-04-04T00:19:18.246Z,0.55
2023-04-04T00:21:47.857Z,0.36
2023-04-04T00:24:14.320Z,0.48
2023-04-04T00:26:40.963Z,0.45
2023-04-04T00:29:07.493Z,0.41
2023-04-04T00:31:34.222Z,0.46
2023-04-04T00:34:01.049Z,0.52
2023-04-04T00:36:27.847Z,0.60
2023-04-04T00:38:57.648Z,0.48
2023-04-04T00:41:33.297Z,0.35
2023-04-04T00:44:00.706Z,0.14
2023-04-04T00:46:32.662Z,0.18
2023-04-04T00:48:59.248Z,0.29
2023-04-04T00:51:25.816Z,0.35
2023-04-04T00:53:52.498Z,0.32
2023-04-04T00:56:20.442Z,0.31
2023-04-04T00:58:47.462Z,0.41
2023-04-04T01:01:14.121Z,0.37
2023-04-04T01:03:51.162Z,0.44
2023-04-04T01:06:17.747Z,0.45
2023-04-04T01:08:45.741Z,0.50
2023-04-04T01:11:14.102Z,0.46
2023-04-04T01:13:40.992Z,0.41
2023-04-04T01:16:07.676Z,0.42
2023-04-04T01:18:36.385Z,0.42
2023-04-04T01:21:07.522Z,0.27
2023-04-04T01:23:58.846Z,-0.01
2023-04-04T01:26:27.112Z,0.13
2023-04-04T01:28:54.734Z,0.14
2023-04-04T01:31:49.482Z,-0.21
2023-04-04T01:34:40.991Z,-0.14
2023-04-04T01:37:23.330Z,0.07
2023-04-04T01:40:10.634Z,0.15
2023-04-04T01:42:38.460Z,0.10
2023-04-04T01:45:19.418Z,-0.16
2023-04-04T01:47:45.916Z,-0.08
2023-04-04T01:50:12.466Z,-0.02
2023-04-04T01:52:38.962Z,0.03
2023-04-04T01:55:05.934Z,0.08
2023-04-04T01:57:32.505Z,0.01
2023-04-04T01:59:59.008Z,0.09
2023-04-04T02:02:25.598Z,0.18
2023-04-04T02:04:52.309Z,0.16
2023-04-04T02:07:19.328Z,0.12
2023-04-04T02:09:45.804Z,-0.18
2023-04-04T02:12:14.966Z,-0.40
2023-04-04T02:14:41.541Z,-0.50
2023-04-04T02:17:08.060Z,-0.30
2023-04-04T02:19:34.628Z,-0.16
2023-04-04T02:22:01.153Z,-0.12
2023-04-04T02:24:27.711Z,-0.09
2023-04-04T02:26:54.168Z,-0.05
2023-04-04T02:29:24.258Z,-0.30
2023-04-04T02:31:50.834Z,-0.34
2023-04-04T02:34:17.440Z,-0.46
2023-04-04T02:36:43.931Z,-0.46
2023-04-04T02:39:10.413Z,-0.26
2023-04-04T02:41:36.854Z,-0.25
2023-04-04T02:44:03.354Z,-0.22
2023-04-04T02:46:29.829Z,-0.24
2023-04-04T02:48:56.353Z,-0.24
2023-04-04T02:51:22.931Z,-0.24
2023-04-04T02:53:49.570Z,-0.23
2023-04-04T02:56:18.934Z,-0.37
2023-04-04T02:58:45.680Z,-0.38
2023-04-04T03:01:12.357Z,-0.34
2023-04-04T03:03:38.917Z,-0.46
2023-04-04T03:06:05.705Z,-0.61
2023-04-04T03:08:32.221Z,-0.72
2023-04-04T03:10:58.714Z,-0.55
2023-04-04T03:13:25.145Z,-0.47
2023-04-04T03:15:57.955Z,-0.46
2023-04-04T03:18:24.544Z,-0.36
2023-04-04T03:20:51.124Z,-0.33
2023-04-04T03:23:17.584Z,-0.38
2023-04-04T03:25:44.060Z,-0.37
2023-04-04T03:28:11.306Z,-0.35
2023-04-04T03:30:38.236Z,-0.39
2023-04-04T03:33:09.479Z,-0.47
2023-04-04T03:35:40.663Z,-0.50
2023-04-04T03:38:14.601Z,-0.50
2023-04-04T03:40:44.693Z,-0.47
2023-04-04T03:43:11.274Z,-0.50
2023-04-04T03:45:38.452Z,-0.50
2023-04-04T03:48:10.267Z,-0.48
2023-04-04T03:50:37.372Z,-0.40
2023-04-04T03:53:03.929Z,-0.49
2023-04-04T03:55:33.634Z,-0.62
2023-04-04T03:58:00.210Z,-0.58
2023-04-04T04:00:27.110Z,-0.52
2023-04-04T04:02:53.744Z,-0.43
2023-04-04T04:05:20.338Z,-0.41
2023-04-04T04:07:46.769Z,-0.42
2023-04-04T04:10:14.260Z,-0.47
2023-04-04T04:12:43.517Z,-0.50
2023-04-04T04:15:10.426Z,-0.46
2023-04-04T04:17:41.104Z,-0.53
2023-04-04T04:20:09.458Z,-0.49
2023-04-04T04:22:36.976Z,-0.62
2023-04-04T04:25:03.686Z,-0.65
2023-04-04T04:27:33.245Z,-0.65
2023-04-04T04:29:59.767Z,-0.58
2023-04-04T04:32:28.855Z,-0.61
2023-04-04T04:34:55.299Z,-0.51
2023-04-04T04:37:21.808Z,-0.51
2023-04-04T04:39:48.248Z,-0.49
2023-04-04T04:42:14.779Z,-0.49
2023-04-04T04:44:41.539Z,-0.56
2023-04-04T04:47:08.107Z,-0.61
2023-04-04T04:49:34.822Z,-0.66
2023-04-04T04:52:02.472Z,-0.75
2023-04-04T04:54:28.970Z,-0.72
2023-04-04T04:56:55.446Z,-0.77
2023-04-04T04:59:21.948Z,-0.74
2023-04-04T05:01:48.446Z,-0.70
2023-04-04T05:04:17.526Z,-0.67
2023-04-04T05:06:43.990Z,-0.58
2023-04-04T05:09:10.434Z,-0.45
2023-04-04T05:11:36.946Z,-0.34
2023-04-04T05:14:03.412Z,-0.36
2023-04-04T05:16:30.004Z,-0.39
2023-04-04T05:18:56.549Z,-0.33
2023-04-04T05:21:23.672Z,-0.28
2023-04-04T05:23:50.412Z,-0.30
2023-04-04T05:26:16.860Z,-0.15
2023-04-04T05:28:43.345Z,0.15
2023-04-04T05:31:09.810Z,0.26
2023-04-04T05:33:36.348Z,0.34
2023-04-04T05:36:05.987Z,0.47
2023-04-04T05:38:33.236Z,0.50
2023-04-04T05:40:59.674Z,0.55
2023-04-04T05:43:26.171Z,0.53
2023-04-04T05:45:52.632Z,0.50
2023-04-04T05:48:19.130Z,0.52
2023-04-04T05:50:46.932Z,0.47
2023-04-04T05:53:13.404Z,0.49
2023-04-04T05:55:39.932Z,0.68
2023-04-04T05:58:06.419Z,0.82
2023-04-04T06:00:33.024Z,0.88
2023-04-04T06:02:59.640Z,0.84
2023-04-04T06:05:26.126Z,0.75
2023-04-04T06:07:52.664Z,0.64
2023-04-04T06:10:22.335Z,0.55
2023-04-04T06:12:48.816Z,0.54
2023-04-04T06:15:15.559Z,0.60
2023-04-04T06:17:42.094Z,0.62
2023-04-04T06:20:09.114Z,0.57
2023-04-04T06:22:35.595Z,0.50
2023-04-04T06:25:02.138Z,0.56
2023-04-04T06:27:29.399Z,0.49
2023-04-04T06:29:55.834Z,0.41
2023-04-04T06:32:24.328Z,0.43
2023-04-04T06:34:50.843Z,0.42
2023-04-04T06:37:17.281Z,0.37
2023-04-04T06:39:43.768Z,0.38
2023-04-04T06:42:11.842Z,0.41
2023-04-04T06:44:38.325Z,0.52
2023-04-04T06:47:04.960Z,0.73
2023-04-04T06:49:31.991Z,0.70
2023-04-04T06:52:00.041Z,0.69
2023-04-04T06:54:26.852Z,0.62
2023-04-04T06:56:53.321Z,0.58
2023-04-04T06:59:19.873Z,0.63
2023-04-04T07:01:46.523Z,0.70
2023-04-04T07:04:13.187Z,0.75
2023-04-04T07:06:39.654Z,0.97
2023-04-04T07:09:08.909Z,0.97
2023-04-04T07:11:39.449Z,0.96
2023-04-04T07:14:06.219Z,0.93
2023-04-04T07:16:32.735Z,1.04
2023-04-04T07:18:59.231Z,1.07
2023-04-04T07:21:25.704Z,1.12
2023-04-04T07:23:52.274Z,1.13
2023-04-04T07:26:18.708Z,1.14
2023-04-04T07:28:45.245Z,1.21
2023-04-04T07:31:11.967Z,1.24
2023-04-04T07:33:38.553Z,1.26
2023-04-04T07:36:05.163Z,1.31
2023-04-04T07:38:31.658Z,1.43
2023-04-04T07:40:58.294Z,1.46
2023-04-04T07:43:24.785Z,1.51
2023-04-04T07:45:51.985Z,1.61
2023-04-04T07:48:19.031Z,1.68
2023-04-04T07:50:46.721Z,1.83
2023-04-04T07:53:13.154Z,1.91
2023-04-04T07:55:39.696Z,1.94
2023-04-04T07:58:06.561Z,2.11
2023-04-04T08:00:33.081Z,2.16
2023-04-04T08:02:59.602Z,2.35
2023-04-04T08:05:26.249Z,2.42
2023-04-04T08:07:52.760Z,2.49
2023-04-04T08:10:20.783Z,2.82
2023-04-04T08:12:48.072Z,2.85
2023-04-04T08:15:14.745Z,2.88
2023-04-04T08:17:43.276Z,2.90
2023-04-04T08:20:10.688Z,3.09
2023-04-04T08:22:37.134Z,3.15
2023-04-04T08:25:04.562Z,3.23
2023-04-04T08:27:30.990Z,3.40
2023-04-04T08:29:57.466Z,3.45
2023-04-04T08:32:24.008Z,3.48
2023-04-04T08:34:51.112Z,3.72
2023-04-04T08:37:18.229Z,3.95
2023-04-04T08:39:45.399Z,3.80
2023-04-04T08:42:14.972Z,3.84
2023-04-04T08:44:45.431Z,3.89
2023-04-04T08:47:13.434Z,3.94
2023-04-04T08:49:48.207Z,3.92
2023-04-04T08:52:19.215Z,3.94
2023-04-04T08:54:47.398Z,3.45
2023-04-04T08:57:14.142Z,3.14
2023-04-04T08:59:40.725Z,3.59
2023-04-04T09:02:10.183Z,4.10
2023-04-04T09:04:41.963Z,4.25
2023-04-04T09:07:10.633Z,4.42
2023-04-04T09:09:38.793Z,4.61
2023-04-04T09:12:06.620Z,4.75
2023-04-04T09:14:37.319Z,4.45
2023-04-04T09:17:03.937Z,4.67
2023-04-04T09:19:30.439Z,4.73
2023-04-04T09:21:57.934Z,4.57
2023-04-04T09:24:24.479Z,4.57
2023-04-04T09:26:53.051Z,4.76
2023-04-04T09:29:26.336Z,4.39
2023-04-04T09:31:52.865Z,3.98
2023-04-04T09:34:20.516Z,3.99
2023-04-04T09:36:47.729Z,3.94
2023-04-04T09:39:17.626Z,4.07
2023-04-04T09:41:44.787Z,4.77
2023-04-04T09:44:13.020Z,4.94
2023-04-04T09:46:40.671Z,4.95
2023-04-04T09:49:13.258Z,5.05
2023-04-04T09:51:42.482Z,5.35
2023-04-04T09:54:18.564Z,5.41
2023-04-04T09:56:45.947Z,5.52
2023-04-04T09:59:13.704Z,5.41
2023-04-04T10:01:40.527Z,5.33
2023-04-04T10:04:11.822Z,5.41
2023-04-04T10:06:38.658Z,5.53
2023-04-04T10:09:07.952Z,5.36
2023-04-04T10:11:36.625Z,5.53
2023-04-04T10:14:06.720Z,5.56
2023-04-04T10:16:37.766Z,5.86
2023-04-04T10:19:07.808Z,5.97
2023-04-04T10:21:35.063Z,5.81
2023-04-04T10:24:08.828Z,5.60
2023-04-04T10:26:35.530Z,5.64
2023-04-04T10:29:02.064Z,5.71
2023-04-04T10:31:32.654Z,5.72
2023-04-04T10:34:17.524Z,5.89
2023-04-04T10:36:54.019Z,5.91
2023-04-04T10:39:32.647Z,5.74
2023-04-04T10:42:01.511Z,5.91
2023-04-04T10:44:38.861Z,5.64
2023-04-04T10:47:21.816Z,6.02
2023-04-04T10:49:53.964Z,5.99
2023-04-04T10:52:24.167Z,5.98
2023-04-04T10:54:54.270Z,5.81
2023-04-04T10:57:21.294Z,5.58
2023-04-04T10:59:58.818Z,5.80
2023-04-04T11:02:45.689Z,5.96
2023-04-04T11:05:20.088Z,6.23
2023-04-04T11:08:00.771Z,6.48
2023-04-04T11:10:36.804Z,6.27
2023-04-04T11:13:13.691Z,6.40
2023-04-04T11:16:02.072Z,6.31
2023-04-04T11:21:07.504Z,6.60
2023-04-04T11:23:49.165Z,7.10
2023-04-04T11:26:34.685Z,6.96
2023-04-04T11:29:05.000Z,6.37
2023-04-04T11:31:37.986Z,6.23
2023-04-04T11:34:12.642Z,6.21
2023-04-04T11:36:40.022Z,5.95
2023-04-04T11:39:13.398Z,6.02
2023-04-04T11:41:58.866Z,6.27
2023-04-04T11:44:30.679Z,6.23
2023-04-04T11:47:07.017Z,6.22
2023-04-04T11:49:37.415Z,6.11
2023-04-04T11:52:11.785Z,6.04
2023-04-04T11:54:39.931Z,5.93
2023-04-04T11:57:20.132Z,6.07
2023-04-04T11:59:51.473Z,6.22
2023-04-04T12:02:27.806Z,6.22
2023-04-04T12:04:55.340Z,6.31
2023-04-04T12:07:24.636Z,5.88
2023-04-04T12:09:51.703Z,5.61
2023-04-04T12:12:18.256Z,5.42
2023-04-04T12:14:44.997Z,5.39
2023-04-04T12:17:11.958Z,5.22
2023-04-04T12:19:40.333Z,5.08
2023-04-04T12:22:10.858Z,5.50
2023-04-04T12:24:41.338Z,5.60
2023-04-04T12:27:08.092Z,5.99
2023-04-04T12:29:38.622Z,6.12
2023-04-04T12:32:06.381Z,6.21
2023-04-04T12:34:34.253Z,5.83
2023-04-04T12:37:02.129Z,5.88
2023-04-04T12:39:29.491Z,5.83
2023-04-04T12:42:01.618Z,6.06
2023-04-04T12:44:30.911Z,6.13
2023-04-04T12:47:02.377Z,6.06
2023-04-04T12:49:33.726Z,6.02
2023-04-04T12:52:07.451Z,6.10
2023-04-04T12:54:37.343Z,5.80
2023-04-04T12:57:05.647Z,5.94
2023-04-04T12:59:34.064Z,5.95
2023-04-04T13:02:21.137Z,5.75
2023-04-04T13:04:52.551Z,5.69
2023-04-04T13:07:32.433Z,5.64
2023-04-04T13:10:05.541Z,5.73
2023-04-04T13:13:00.650Z,5.84
2023-04-04T13:15:52.188Z,5.92
2023-04-04T13:18:21.942Z,5.82
2023-04-04T13:20:51.993Z,5.76
2023-04-04T13:23:18.957Z,5.82
2023-04-04T13:25:45.597Z,5.78
2023-04-04T13:28:12.382Z,5.88
2023-04-04T13:30:43.379Z,6.00
2023-04-04T13:33:09.947Z,5.85
2023-04-04T13:35:36.500Z,5.75
2023-04-04T13:38:02.980Z,5.76
2023-04-04T13:40:29.528Z,5.97
2023-04-04T13:42:56.333Z,6.05
2023-04-04T13:45:23.029Z,5.90
2023-04-04T13:47:49.502Z,5.96
2023-04-04T13:50:16.558Z,5.97
2023-04-04T13:52:42.988Z,5.82
2023-04-04T13:55:10.455Z,5.72
2023-04-04T13:57:37.034Z,6.10
2023-04-04T14:00:05.586Z,6.01
2023-04-04T14:02:32.165Z,5.92
2023-04-04T14:04:58.675Z,5.96
2023-04-04T14:07:25.304Z,6.13
2023-04-04T14:09:51.808Z,6.00
2023-04-04T14:12:18.254Z,5.87
2023-04-04T14:14:44.770Z,5.77
2023-04-04T14:17:11.340Z,5.91
2023-04-04T14:19:38.922Z,5.97
2023-04-04T14:22:06.474Z,5.91
2023-04-04T14:24:33.064Z,6.00
2023-04-04T14:26:59.536Z,5.92
2023-04-04T14:29:26.570Z,5.93
2023-04-04T14:31:55.501Z,5.91
2023-04-04T14:34:22.261Z,5.89
2023-04-04T14:36:48.794Z,5.88
2023-04-04T14:39:15.280Z,5.73
2023-04-04T14:41:41.817Z,5.73
2023-04-04T14:44:08.600Z,5.86
2023-04-04T14:46:35.492Z,5.87
2023-04-04T14:49:03.216Z,5.92
2023-04-04T14:51:29.743Z,5.70
2023-04-04T14:53:56.426Z,5.67
2023-04-04T14:56:23.684Z,5.69
2023-04-04T14:58:50.776Z,5.80
2023-04-04T15:01:17.580Z,5.69
2023-04-04T15:03:44.066Z,5.73
2023-04-04T15:06:10.715Z,5.75
2023-04-04T15:08:37.771Z,5.74
2023-04-04T15:11:04.518Z,5.76
2023-04-04T15:13:31.330Z,5.74
2023-04-04T15:16:01.634Z,5.69
2023-04-04T15:18:28.355Z,5.70
2023-04-04T15:20:57.336Z,5.90
2023-04-04T15:23:23.932Z,5.69
2023-04-04T15:25:50.521Z,5.57
2023-04-04T15:28:19.793Z,5.45
2023-04-04T15:30:46.278Z,5.52
2023-04-04T15:33:13.084Z,5.51
2023-04-04T15:35:39.650Z,5.53
2023-04-04T15:38:06.104Z,5.55
2023-04-04T15:40:32.558Z,5.47
2023-04-04T15:42:59.018Z,5.44
2023-04-04T15:45:25.638Z,5.39
2023-04-04T15:47:52.137Z,5.40
2023-04-04T15:50:18.645Z,5.48
2023-04-04T15:52:45.176Z,5.56
2023-04-04T15:55:14.364Z,5.62
2023-04-04T15:57:44.264Z,5.57
2023-04-04T16:00:12.914Z,5.51
2023-04-04T16:02:39.571Z,5.49
2023-04-04T16:05:06.937Z,5.41
2023-04-04T16:07:33.426Z,5.34
2023-04-04T16:10:00.783Z,5.30
2023-04-04T16:12:27.264Z,5.37
2023-04-04T16:14:53.697Z,5.33
2023-04-04T16:17:20.187Z,5.28
2023-04-04T16:19:46.754Z,5.35
2023-04-04T16:22:15.222Z,5.42
2023-04-04T16:24:41.741Z,5.32
2023-04-04T16:27:08.243Z,5.33
2023-04-04T16:29:34.718Z,5.26
2023-04-04T16:32:01.195Z,5.20
2023-04-04T16:34:27.661Z,5.16
2023-04-04T16:36:54.273Z,5.21
2023-04-04T16:39:20.778Z,5.19
2023-04-04T16:41:47.252Z,5.16
2023-04-04T16:44:15.302Z,5.14
2023-04-04T16:46:47.205Z,5.14
2023-04-04T16:49:13.568Z,5.07
2023-04-04T16:51:40.186Z,5.03
2023-04-04T16:54:06.727Z,4.96
2023-04-04T16:56:33.242Z,4.90
2023-04-04T16:58:59.801Z,4.81
2023-04-04T17:01:26.743Z,4.77
2023-04-04T17:03:53.506Z,4.72
2023-04-04T17:06:19.946Z,4.66
2023-04-04T17:08:46.846Z,4.55
2023-04-04T17:11:13.457Z,4.43
2023-04-04T17:13:40.167Z,4.38
2023-04-04T17:16:07.312Z,4.36
2023-04-04T17:18:34.216Z,4.30
2023-04-04T17:21:01.280Z,4.23
2023-04-04T17:23:27.840Z,4.25
2023-04-04T17:25:54.269Z,4.21
2023-04-04T17:28:20.840Z,4.23
2023-04-04T17:30:47.305Z,4.23
2023-04-04T17:33:14.790Z,4.22
2023-04-04T17:35:41.340Z,4.22
2023-04-04T17:38:08.041Z,4.17
2023-04-04T17:40:39.251Z,4.14
2023-04-04T17:43:07.246Z,4.17
2023-04-04T17:45:33.887Z,4.20
2023-04-04T17:48:00.417Z,4.16
2023-04-04T17:50:30.408Z,4.02
2023-04-04T17:52:56.892Z,3.97
2023-04-04T17:55:23.694Z,4.00
2023-04-04T17:57:53.531Z,3.99
2023-04-04T18:00:21.582Z,3.97
2023-04-04T18:02:48.277Z,3.89
2023-04-04T18:05:14.909Z,3.84
2023-04-04T18:07:41.356Z,3.73
2023-04-04T18:10:08.473Z,3.73
2023-04-04T18:12:35.950Z,3.78
2023-04-04T18:15:03.571Z,3.80
2023-04-04T18:17:31.163Z,3.82
2023-04-04T18:19:58.940Z,3.80
2023-04-04T18:22:27.011Z,3.81
2023-04-04T18:24:55.596Z,3.83
2023-04-04T18:27:22.040Z,3.83
2023-04-04T18:29:49.761Z,3.86
2023-04-04T18:32:17.584Z,3.89
2023-04-04T18:34:44.071Z,3.88
2023-04-04T18:37:12.247Z,3.89
2023-04-04T18:39:38.801Z,3.91
2023-04-04T18:42:05.479Z,3.89
2023-04-04T18:44:32.949Z,3.91
2023-04-04T18:47:04.109Z,3.91
2023-04-04T18:49:31.247Z,3.95
2023-04-04T18:51:58.128Z,3.91
2023-04-04T18:54:26.969Z,3.90
2023-04-04T18:56:56.091Z,3.87
2023-04-04T18:59:24.198Z,3.87
2023-04-04T19:01:54.212Z,3.90
2023-04-04T19:04:21.581Z,3.92
2023-04-04T19:06:53.134Z,3.96
2023-04-04T19:09:20.820Z,4.00
2023-04-04T19:11:48.182Z,3.88
2023-04-04T19:14:14.791Z,3.85
2023-04-04T19:16:41.914Z,3.87
2023-04-04T19:19:08.618Z,3.90
2023-04-04T19:21:35.428Z,3.81
2023-04-04T19:24:01.906Z,3.77
2023-04-04T19:26:31.452Z,3.73
2023-04-04T19:28:58.742Z,3.73
2023-04-04T19:31:30.149Z,3.69
2023-04-04T19:33:56.872Z,3.71
2023-04-04T19:36:23.960Z,3.65
2023-04-04T19:38:54.651Z,3.55
2023-04-04T19:41:33.649Z,3.59
2023-04-04T19:44:00.610Z,3.54
2023-04-04T19:46:32.880Z,3.50
2023-04-04T19:49:09.346Z,3.49
2023-04-04T19:51:38.616Z,3.49
2023-04-04T19:54:08.346Z,3.43
2023-04-04T19:56:35.405Z,3.43
2023-04-04T19:59:05.290Z,3.40
2023-04-04T20:01:34.935Z,3.49
2023-04-04T20:04:09.636Z,3.53
2023-04-04T20:06:38.350Z,3.42
2023-04-04T20:09:12.794Z,3.31
2023-04-04T20:11:39.335Z,3.30
2023-04-04T20:14:07.781Z,3.39
2023-04-04T20:16:34.776Z,3.36
2023-04-04T20:19:03.723Z,3.19
2023-04-04T20:21:33.859Z,3.23
2023-04-04T20:24:08.656Z,3.30
2023-04-04T20:26:35.550Z,3.23
2023-04-04T20:29:07.602Z,3.30
2023-04-04T20:31:37.356Z,3.33
2023-04-04T20:34:06.632Z,3.32
2023-04-04T20:36:37.225Z,3.16
2023-04-04T20:39:27.852Z,3.16
2023-04-04T20:41:55.783Z,3.13
2023-04-04T20:44:22.392Z,3.10
2023-04-04T20:46:48.869Z,3.09
2023-04-04T20:49:19.697Z,3.08
2023-04-04T20:51:46.153Z,3.05
2023-04-04T20:54:12.663Z,2.98
2023-04-04T20:56:43.088Z,2.86
2023-04-04T20:59:32.417Z,2.84
2023-04-04T21:02:15.682Z,2.83
2023-04-04T21:04:45.509Z,2.82
2023-04-04T21:07:41.397Z,2.73
2023-04-04T21:10:37.332Z,2.63
2023-04-04T21:13:05.555Z,2.59
2023-04-04T21:15:38.680Z,2.57
2023-04-04T21:18:09.558Z,2.47
2023-04-04T21:20:47.904Z,2.43
2023-04-04T21:23:26.561Z,2.48
2023-04-04T21:25:58.631Z,2.60
2023-04-04T21:28:29.753Z,2.67
2023-04-04T21:30:56.581Z,2.69
2023-04-04T21:33:23.189Z,2.38
2023-04-04T21:35:51.596Z,2.16
2023-04-04T21:38:32.841Z,2.25
2023-04-04T21:41:12.820Z,2.32
2023-04-04T21:43:39.277Z,2.39
2023-04-04T21:46:05.859Z,2.47
2023-04-04T21:48:32.332Z,2.51
2023-04-04T21:50:58.858Z,2.47
2023-04-04T21:53:25.405Z,2.41
2023-04-04T21:55:51.896Z,2.37
2023-04-04T21:58:18.837Z,2.39
2023-04-04T22:00:45.523Z,2.35
2023-04-04T22:03:12.172Z,2.23
2023-04-04T22:05:39.594Z,2.25
2023-04-04T22:08:06.655Z,2.30
2023-04-04T22:10:33.580Z,2.17
2023-04-04T22:13:02.220Z,1.96
2023-04-04T22:15:35.064Z,1.92
2023-04-04T22:18:05.085Z,1.86
2023-04-04T22:20:32.240Z,1.96
2023-04-04T22:22:59.510Z,2.06
2023-04-04T22:25:27.218Z,2.04
2023-04-04T22:27:53.814Z,2.09
2023-04-04T22:30:21.640Z,2.19
2023-04-04T22:32:48.275Z,2.20
2023-04-04T22:35:14.827Z,2.25
2023-04-04T22:37:41.446Z,2.14
2023-04-04T22:40:11.986Z,2.05
2023-04-04T22:42:38.538Z,2.11
2023-04-04T22:45:05.454Z,2.09
2023-04-04T22:47:32.067Z,1.87
2023-04-04T22:50:04.580Z,1.74
2023-04-04T22:52:32.144Z,1.81
2023-04-04T22:55:02.562Z,1.79
2023-04-04T22:57:29.121Z,1.71
2023-04-04T22:59:55.653Z,1.75
2023-04-04T23:02:22.147Z,1.78
2023-04-04T23:04:48.592Z,1.74
2023-04-04T23:07:15.108Z,1.76
2023-04-04T23:09:41.560Z,1.76
2023-04-04T23:12:08.382Z,1.77
2023-04-04T23:14:38.673Z,1.77
2023-04-04T23:17:06.121Z,1.75
2023-04-04T23:19:32.585Z,1.76
2023-04-04T23:21:59.722Z,1.79
2023-04-04T23:24:26.404Z,1.75
2023-04-04T23:26:53.019Z,1.68
2023-04-04T23:29:19.469Z,1.60
2023-04-04T23:31:48.654Z,1.36
2023-04-04T23:34:15.245Z,1.27
2023-04-04T23:36:41.814Z,1.22
2023-04-04T23:39:08.313Z,1.12
2023-04-04T23:41:34.742Z,1.06
2023-04-04T23:44:01.294Z,1.03
2023-04-04T23:46:30.411Z,1.12
2023-04-04T23:48:57.026Z,1.21
2023-04-04T23:51:25.592Z,1.43
2023-04-04T23:53:52.592Z,1.52
2023-04-04T23:56:19.094Z,1.49
2023-04-04T23:58:45.713Z,1.49
